Millheim, Texas
Current Conditions -  °F | °C
As of 6:35 PM on Monday 22 Dec 2014 (Local Time) from KELA Reporting Station
Clear Clear  
Wind Chill: 18°   Ceiling: Unl
Heat Index: 18°   Visibility: 10mi
Dew Point: 16°   Wind: 7mph
Humidity: 90%   Direction: 200°SSW
Pressure: 29.63"   Gusts: NA
Location:  29.7835°N, 96.2064°W
Report Text: KELA 230035Z AUTO 20006KT 10SM CLR 18/16 A2963 RMK AO2 T01800164
Loading
Personal Weather Stations






























Interactive Weather Map New forecast layout! Learn more

10-Day Weather Forecast

Advertisements
Track Severe Weather on mobile